sensor_id;sensor_type;location;lat;lon;timestamp;P1;durP1;ratioP1;P2;durP2;ratioP2
16401;SDS011;8310;44.626;11.176;2023-08-12T00:02:37;5.93;;;2.10;;
16401;SDS011;8310;44.626;11.176;2023-08-12T00:05:05;3.10;;;1.88;;
16401;SDS011;8310;44.626;11.176;2023-08-12T00:07:33;5.57;;;2.38;;
16401;SDS011;8310;44.626;11.176;2023-08-12T00:10:02;5.43;;;2.20;;
16401;SDS011;8310;44.626;11.176;2023-08-12T00:14:58;11.73;;;2.22;;
16401;SDS011;8310;44.626;11.176;2023-08-12T00:17:26;4.35;;;1.90;;
16401;SDS011;8310;44.626;11.176;2023-08-12T00:19:55;4.68;;;2.10;;
16401;SDS011;8310;44.626;11.176;2023-08-12T00:22:22;2.85;;;1.88;;
16401;SDS011;8310;44.626;11.176;2023-08-12T00:24:50;3.80;;;2.10;;
16401;SDS011;8310;44.626;11.176;2023-08-12T00:29:45;5.25;;;1.95;;
16401;SDS011;8310;44.626;11.176;2023-08-12T00:32:12;3.72;;;2.42;;
16401;SDS011;8310;44.626;11.176;2023-08-12T00:34:40;4.57;;;2.35;;
16401;SDS011;8310;44.626;11.176;2023-08-12T00:37:09;6.45;;;2.63;;
16401;SDS011;8310;44.626;11.176;2023-08-12T00:39:37;5.82;;;2.28;;
16401;SDS011;8310;44.626;11.176;2023-08-12T00:42:05;5.03;;;2.55;;
16401;SDS011;8310;44.626;11.176;2023-08-12T00:44:32;3.80;;;2.13;;
16401;SDS011;8310;44.626;11.176;2023-08-12T00:47:00;5.88;;;2.03;;
16401;SDS011;8310;44.626;11.176;2023-08-12T00:49:28;5.47;;;2.78;;
16401;SDS011;8310;44.626;11.176;2023-08-12T00:51:57;4.80;;;2.47;;
16401;SDS011;8310;44.626;11.176;2023-08-12T00:54:26;5.53;;;2.83;;
16401;SDS011;8310;44.626;11.176;2023-08-12T00:56:54;3.28;;;2.20;;
16401;SDS011;8310;44.626;11.176;2023-08-12T00:59:22;4.00;;;2.40;;
16401;SDS011;8310;44.626;11.176;2023-08-12T01:01:50;5.93;;;2.35;;
16401;SDS011;8310;44.626;11.176;2023-08-12T01:04:18;4.05;;;2.33;;
16401;SDS011;8310;44.626;11.176;2023-08-12T01:06:45;6.05;;;2.35;;
16401;SDS011;8310;44.626;11.176;2023-08-12T01:09:13;5.75;;;2.85;;
16401;SDS011;8310;44.626;11.176;2023-08-12T01:11:46;5.85;;;3.15;;
16401;SDS011;8310;44.626;11.176;2023-08-12T01:14:18;4.97;;;2.85;;
16401;SDS011;8310;44.626;11.176;2023-08-12T01:16:51;5.90;;;3.88;;
16401;SDS011;8310;44.626;11.176;2023-08-12T01:21:55;6.50;;;3.30;;
16401;SDS011;8310;44.626;11.176;2023-08-12T01:24:32;5.43;;;3.10;;
16401;SDS011;8310;44.626;11.176;2023-08-12T01:27:01;7.75;;;3.08;;
16401;SDS011;8310;44.626;11.176;2023-08-12T01:29:29;7.25;;;3.13;;
16401;SDS011;8310;44.626;11.176;2023-08-12T01:31:58;6.03;;;2.70;;
16401;SDS011;8310;44.626;11.176;2023-08-12T01:34:37;4.38;;;3.05;;
16401;SDS011;8310;44.626;11.176;2023-08-12T01:37:11;6.25;;;2.47;;
16401;SDS011;8310;44.626;11.176;2023-08-12T01:39:45;5.32;;;2.72;;
16401;SDS011;8310;44.626;11.176;2023-08-12T01:42:13;7.10;;;2.65;;
16401;SDS011;8310;44.626;11.176;2023-08-12T01:44:45;3.30;;;2.42;;
16401;SDS011;8310;44.626;11.176;2023-08-12T01:47:13;4.00;;;2.85;;
16401;SDS011;8310;44.626;11.176;2023-08-12T01:49:40;7.65;;;2.83;;
16401;SDS011;8310;44.626;11.176;2023-08-12T01:52:08;5.10;;;3.17;;
16401;SDS011;8310;44.626;11.176;2023-08-12T01:54:36;3.55;;;2.72;;
16401;SDS011;8310;44.626;11.176;2023-08-12T01:57:05;9.40;;;2.60;;
16401;SDS011;8310;44.626;11.176;2023-08-12T01:59:33;8.57;;;3.10;;
16401;SDS011;8310;44.626;11.176;2023-08-12T02:02:00;8.50;;;3.03;;
16401;SDS011;8310;44.626;11.176;2023-08-12T02:04:28;7.03;;;2.92;;
16401;SDS011;8310;44.626;11.176;2023-08-12T02:06:56;5.18;;;3.05;;
16401;SDS011;8310;44.626;11.176;2023-08-12T02:09:23;7.00;;;3.30;;
16401;SDS011;8310;44.626;11.176;2023-08-12T02:11:51;5.32;;;3.15;;
16401;SDS011;8310;44.626;11.176;2023-08-12T02:14:21;20.00;;;3.08;;
16401;SDS011;8310;44.626;11.176;2023-08-12T02:16:48;5.97;;;3.00;;
16401;SDS011;8310;44.626;11.176;2023-08-12T02:19:15;4.15;;;2.95;;
16401;SDS011;8310;44.626;11.176;2023-08-12T02:21:43;4.38;;;3.22;;
16401;SDS011;8310;44.626;11.176;2023-08-12T02:24:10;4.15;;;3.15;;
16401;SDS011;8310;44.626;11.176;2023-08-12T02:26:38;4.50;;;3.40;;
16401;SDS011;8310;44.626;11.176;2023-08-12T02:29:06;4.95;;;2.90;;
16401;SDS011;8310;44.626;11.176;2023-08-12T02:31:35;9.00;;;3.30;;
16401;SDS011;8310;44.626;11.176;2023-08-12T02:34:03;4.47;;;2.92;;
16401;SDS011;8310;44.626;11.176;2023-08-12T02:36:31;5.65;;;2.70;;
16401;SDS011;8310;44.626;11.176;2023-08-12T02:38:59;5.00;;;3.10;;
16401;SDS011;8310;44.626;11.176;2023-08-12T02:41:26;4.80;;;3.28;;
16401;SDS011;8310;44.626;11.176;2023-08-12T02:43:54;5.43;;;3.63;;
16401;SDS011;8310;44.626;11.176;2023-08-12T02:46:21;6.82;;;3.80;;
16401;SDS011;8310;44.626;11.176;2023-08-12T02:48:52;3.22;;;2.45;;
16401;SDS011;8310;44.626;11.176;2023-08-12T02:51:19;4.55;;;3.60;;
16401;SDS011;8310;44.626;11.176;2023-08-12T02:53:47;4.32;;;2.75;;
16401;SDS011;8310;44.626;11.176;2023-08-12T02:56:14;4.93;;;3.22;;
16401;SDS011;8310;44.626;11.176;2023-08-12T02:58:41;5.75;;;3.75;;
16401;SDS011;8310;44.626;11.176;2023-08-12T03:01:09;7.75;;;5.00;;
16401;SDS011;8310;44.626;11.176;2023-08-12T03:03:37;5.35;;;4.55;;
16401;SDS011;8310;44.626;11.176;2023-08-12T03:06:06;7.70;;;3.55;;
16401;SDS011;8310;44.626;11.176;2023-08-12T03:08:33;5.30;;;3.65;;
16401;SDS011;8310;44.626;11.176;2023-08-12T03:11:01;6.35;;;4.13;;
16401;SDS011;8310;44.626;11.176;2023-08-12T03:13:30;7.85;;;3.92;;
16401;SDS011;8310;44.626;11.176;2023-08-12T03:15:58;6.82;;;3.03;;
16401;SDS011;8310;44.626;11.176;2023-08-12T03:18:25;7.38;;;3.88;;
16401;SDS011;8310;44.626;11.176;2023-08-12T03:20:53;4.22;;;3.17;;
16401;SDS011;8310;44.626;11.176;2023-08-12T03:25:55;4.75;;;3.17;;
16401;SDS011;8310;44.626;11.176;2023-08-12T03:28:23;5.65;;;2.88;;
16401;SDS011;8310;44.626;11.176;2023-08-12T03:30:51;6.25;;;2.92;;
16401;SDS011;8310;44.626;11.176;2023-08-12T03:33:19;3.80;;;2.90;;
16401;SDS011;8310;44.626;11.176;2023-08-12T03:35:46;4.65;;;3.30;;
16401;SDS011;8310;44.626;11.176;2023-08-12T03:38:14;3.92;;;3.50;;
16401;SDS011;8310;44.626;11.176;2023-08-12T03:40:42;6.18;;;3.08;;
16401;SDS011;8310;44.626;11.176;2023-08-12T03:43:11;8.60;;;3.25;;
16401;SDS011;8310;44.626;11.176;2023-08-12T03:45:41;6.30;;;3.08;;
16401;SDS011;8310;44.626;11.176;2023-08-12T03:48:09;4.05;;;2.67;;
16401;SDS011;8310;44.626;11.176;2023-08-12T03:50:37;7.03;;;2.70;;
16401;SDS011;8310;44.626;11.176;2023-08-12T03:53:06;4.80;;;3.20;;
16401;SDS011;8310;44.626;11.176;2023-08-12T03:55:34;4.75;;;3.08;;
16401;SDS011;8310;44.626;11.176;2023-08-12T03:58:02;5.28;;;2.60;;
16401;SDS011;8310;44.626;11.176;2023-08-12T04:00:31;6.97;;;3.75;;
16401;SDS011;8310;44.626;11.176;2023-08-12T04:02:58;6.30;;;3.05;;
16401;SDS011;8310;44.626;11.176;2023-08-12T04:05:25;5.55;;;3.03;;
16401;SDS011;8310;44.626;11.176;2023-08-12T04:07:53;6.55;;;2.90;;
16401;SDS011;8310;44.626;11.176;2023-08-12T04:10:20;5.70;;;3.42;;
16401;SDS011;8310;44.626;11.176;2023-08-12T04:12:48;5.60;;;2.83;;
16401;SDS011;8310;44.626;11.176;2023-08-12T04:15:15;7.55;;;3.60;;
16401;SDS011;8310;44.626;11.176;2023-08-12T04:17:44;8.18;;;2.63;;
16401;SDS011;8310;44.626;11.176;2023-08-12T04:20:12;7.03;;;2.90;;
16401;SDS011;8310;44.626;11.176;2023-08-12T04:22:39;5.72;;;3.00;;
16401;SDS011;8310;44.626;11.176;2023-08-12T04:25:07;6.45;;;3.25;;
16401;SDS011;8310;44.626;11.176;2023-08-12T04:27:35;5.95;;;3.17;;
16401;SDS011;8310;44.626;11.176;2023-08-12T04:30:04;7.22;;;3.25;;
16401;SDS011;8310;44.626;11.176;2023-08-12T04:32:32;4.88;;;3.13;;
16401;SDS011;8310;44.626;11.176;2023-08-12T04:35:01;5.70;;;2.80;;
16401;SDS011;8310;44.626;11.176;2023-08-12T04:37:30;5.45;;;3.35;;
16401;SDS011;8310;44.626;11.176;2023-08-12T04:39:57;5.38;;;2.67;;
16401;SDS011;8310;44.626;11.176;2023-08-12T04:42:25;3.67;;;2.53;;
16401;SDS011;8310;44.626;11.176;2023-08-12T04:44:53;6.72;;;2.83;;
16401;SDS011;8310;44.626;11.176;2023-08-12T04:47:20;4.75;;;2.65;;
16401;SDS011;8310;44.626;11.176;2023-08-12T04:49:48;3.85;;;2.67;;
16401;SDS011;8310;44.626;11.176;2023-08-12T04:52:17;4.03;;;3.05;;
16401;SDS011;8310;44.626;11.176;2023-08-12T04:54:52;5.78;;;2.53;;
16401;SDS011;8310;44.626;11.176;2023-08-12T04:57:20;4.10;;;2.72;;
16401;SDS011;8310;44.626;11.176;2023-08-12T04:59:47;3.85;;;3.15;;
16401;SDS011;8310;44.626;11.176;2023-08-12T05:02:15;9.13;;;2.33;;
16401;SDS011;8310;44.626;11.176;2023-08-12T05:04:46;7.95;;;2.70;;
16401;SDS011;8310;44.626;11.176;2023-08-12T05:07:17;4.80;;;2.78;;
16401;SDS011;8310;44.626;11.176;2023-08-12T05:09:44;4.47;;;2.53;;
16401;SDS011;8310;44.626;11.176;2023-08-12T05:12:12;4.95;;;2.65;;
16401;SDS011;8310;44.626;11.176;2023-08-12T05:14:40;3.90;;;2.78;;
16401;SDS011;8310;44.626;11.176;2023-08-12T05:17:07;4.82;;;2.78;;
16401;SDS011;8310;44.626;11.176;2023-08-12T05:19:35;4.20;;;2.40;;
16401;SDS011;8310;44.626;11.176;2023-08-12T05:22:03;3.65;;;2.60;;
16401;SDS011;8310;44.626;11.176;2023-08-12T05:24:32;7.85;;;2.80;;
16401;SDS011;8310;44.626;11.176;2023-08-12T05:27:01;5.63;;;2.88;;
16401;SDS011;8310;44.626;11.176;2023-08-12T05:29:29;4.47;;;2.45;;
16401;SDS011;8310;44.626;11.176;2023-08-12T05:31:56;3.70;;;2.83;;
16401;SDS011;8310;44.626;11.176;2023-08-12T05:34:24;4.32;;;2.83;;
16401;SDS011;8310;44.626;11.176;2023-08-12T05:36:52;3.88;;;2.85;;
16401;SDS011;8310;44.626;11.176;2023-08-12T05:39:19;6.80;;;3.33;;
16401;SDS011;8310;44.626;11.176;2023-08-12T05:41:53;4.57;;;3.05;;
16401;SDS011;8310;44.626;11.176;2023-08-12T05:44:21;4.45;;;3.17;;
16401;SDS011;8310;44.626;11.176;2023-08-12T05:46:49;6.63;;;3.38;;
16401;SDS011;8310;44.626;11.176;2023-08-12T05:49:17;8.60;;;2.95;;
16401;SDS011;8310;44.626;11.176;2023-08-12T05:51:44;7.30;;;3.80;;
16401;SDS011;8310;44.626;11.176;2023-08-12T05:54:12;9.38;;;4.70;;
16401;SDS011;8310;44.626;11.176;2023-08-12T05:56:39;6.55;;;4.93;;
16401;SDS011;8310;44.626;11.176;2023-08-12T05:59:09;4.97;;;3.95;;
16401;SDS011;8310;44.626;11.176;2023-08-12T06:01:36;9.25;;;4.20;;
16401;SDS011;8310;44.626;11.176;2023-08-12T06:04:04;6.93;;;4.30;;
16401;SDS011;8310;44.626;11.176;2023-08-12T06:06:31;8.48;;;4.22;;
16401;SDS011;8310;44.626;11.176;2023-08-12T06:08:59;10.15;;;4.93;;
16401;SDS011;8310;44.626;11.176;2023-08-12T06:11:26;13.45;;;4.53;;
16401;SDS011;8310;44.626;11.176;2023-08-12T06:13:53;7.55;;;3.92;;
16401;SDS011;8310;44.626;11.176;2023-08-12T06:16:23;9.27;;;4.38;;
16401;SDS011;8310;44.626;11.176;2023-08-12T06:18:50;7.97;;;4.00;;
16401;SDS011;8310;44.626;11.176;2023-08-12T06:21:18;10.25;;;4.60;;
16401;SDS011;8310;44.626;11.176;2023-08-12T06:23:45;6.68;;;4.55;;
16401;SDS011;8310;44.626;11.176;2023-08-12T06:26:13;8.07;;;4.78;;
16401;SDS011;8310;44.626;11.176;2023-08-12T06:28:40;6.70;;;4.30;;
16401;SDS011;8310;44.626;11.176;2023-08-12T06:31:08;7.93;;;4.82;;
16401;SDS011;8310;44.626;11.176;2023-08-12T06:33:37;9.00;;;5.10;;
16401;SDS011;8310;44.626;11.176;2023-08-12T06:36:04;8.68;;;4.38;;
16401;SDS011;8310;44.626;11.176;2023-08-12T06:38:32;9.68;;;4.78;;
16401;SDS011;8310;44.626;11.176;2023-08-12T06:41:00;8.38;;;4.32;;
16401;SDS011;8310;44.626;11.176;2023-08-12T06:43:27;7.55;;;4.60;;
16401;SDS011;8310;44.626;11.176;2023-08-12T06:45:55;7.80;;;4.82;;
16401;SDS011;8310;44.626;11.176;2023-08-12T06:48:22;8.70;;;5.60;;
16401;SDS011;8310;44.626;11.176;2023-08-12T06:50:54;8.43;;;5.18;;
16401;SDS011;8310;44.626;11.176;2023-08-12T06:53:22;7.07;;;4.38;;
16401;SDS011;8310;44.626;11.176;2023-08-12T06:55:49;6.82;;;4.72;;
16401;SDS011;8310;44.626;11.176;2023-08-12T06:58:17;6.82;;;4.00;;
16401;SDS011;8310;44.626;11.176;2023-08-12T07:00:45;8.35;;;4.32;;
16401;SDS011;8310;44.626;11.176;2023-08-12T07:03:12;6.30;;;3.88;;
16401;SDS011;8310;44.626;11.176;2023-08-12T07:05:40;6.28;;;3.63;;
16401;SDS011;8310;44.626;11.176;2023-08-12T07:08:09;6.97;;;4.45;;
16401;SDS011;8310;44.626;11.176;2023-08-12T07:10:37;4.95;;;4.30;;
16401;SDS011;8310;44.626;11.176;2023-08-12T07:15:32;8.52;;;3.95;;
16401;SDS011;8310;44.626;11.176;2023-08-12T07:17:59;10.50;;;3.88;;
16401;SDS011;8310;44.626;11.176;2023-08-12T07:20:27;5.18;;;3.78;;
16401;SDS011;8310;44.626;11.176;2023-08-12T07:22:54;7.38;;;3.65;;
16401;SDS011;8310;44.626;11.176;2023-08-12T07:25:24;11.52;;;3.30;;
16401;SDS011;8310;44.626;11.176;2023-08-12T07:27:51;5.15;;;3.03;;
16401;SDS011;8310;44.626;11.176;2023-08-12T07:30:19;8.15;;;3.40;;
16401;SDS011;8310;44.626;11.176;2023-08-12T07:32:48;7.00;;;3.58;;
16401;SDS011;8310;44.626;11.176;2023-08-12T07:35:15;7.10;;;3.13;;
16401;SDS011;8310;44.626;11.176;2023-08-12T07:37:42;7.90;;;3.00;;
16401;SDS011;8310;44.626;11.176;2023-08-12T07:40:09;8.90;;;3.15;;
16401;SDS011;8310;44.626;11.176;2023-08-12T07:42:39;6.95;;;3.50;;
16401;SDS011;8310;44.626;11.176;2023-08-12T07:45:07;11.55;;;3.58;;
16401;SDS011;8310;44.626;11.176;2023-08-12T07:47:35;7.60;;;2.90;;
16401;SDS011;8310;44.626;11.176;2023-08-12T07:50:03;7.78;;;2.88;;
16401;SDS011;8310;44.626;11.176;2023-08-12T07:52:31;9.15;;;2.80;;
16401;SDS011;8310;44.626;11.176;2023-08-12T07:54:59;10.25;;;2.85;;
16401;SDS011;8310;44.626;11.176;2023-08-12T07:57:26;4.65;;;2.55;;
16401;SDS011;8310;44.626;11.176;2023-08-12T07:59:56;6.45;;;2.50;;
16401;SDS011;8310;44.626;11.176;2023-08-12T08:02:24;8.52;;;3.08;;
16401;SDS011;8310;44.626;11.176;2023-08-12T08:04:51;4.75;;;2.83;;
16401;SDS011;8310;44.626;11.176;2023-08-12T08:07:21;6.55;;;2.58;;
16401;SDS011;8310;44.626;11.176;2023-08-12T08:09:50;4.35;;;2.35;;
16401;SDS011;8310;44.626;11.176;2023-08-12T08:12:18;7.78;;;2.40;;
16401;SDS011;8310;44.626;11.176;2023-08-12T08:14:45;5.40;;;3.38;;
16401;SDS011;8310;44.626;11.176;2023-08-12T08:17:14;5.10;;;2.20;;
16401;SDS011;8310;44.626;11.176;2023-08-12T08:19:42;5.28;;;2.65;;
16401;SDS011;8310;44.626;11.176;2023-08-12T08:22:11;5.55;;;2.25;;
16401;SDS011;8310;44.626;11.176;2023-08-12T08:24:39;3.53;;;2.10;;
16401;SDS011;8310;44.626;11.176;2023-08-12T08:27:06;4.72;;;2.10;;
16401;SDS011;8310;44.626;11.176;2023-08-12T08:29:33;5.82;;;2.47;;
16401;SDS011;8310;44.626;11.176;2023-08-12T08:32:01;6.15;;;2.85;;
16401;SDS011;8310;44.626;11.176;2023-08-12T08:34:30;5.97;;;2.45;;
16401;SDS011;8310;44.626;11.176;2023-08-12T08:36:58;5.47;;;2.00;;
16401;SDS011;8310;44.626;11.176;2023-08-12T08:39:25;4.20;;;2.10;;
16401;SDS011;8310;44.626;11.176;2023-08-12T08:41:53;6.90;;;2.50;;
16401;SDS011;8310;44.626;11.176;2023-08-12T08:44:21;3.72;;;2.05;;
16401;SDS011;8310;44.626;11.176;2023-08-12T08:46:49;8.25;;;2.20;;
16401;SDS011;8310;44.626;11.176;2023-08-12T08:49:19;3.88;;;1.90;;
16401;SDS011;8310;44.626;11.176;2023-08-12T08:51:48;7.80;;;2.10;;
16401;SDS011;8310;44.626;11.176;2023-08-12T08:54:18;8.68;;;2.40;;
16401;SDS011;8310;44.626;11.176;2023-08-12T08:56:46;9.65;;;2.50;;
16401;SDS011;8310;44.626;11.176;2023-08-12T08:59:16;5.22;;;2.50;;
16401;SDS011;8310;44.626;11.176;2023-08-12T09:01:43;9.00;;;2.50;;
16401;SDS011;8310;44.626;11.176;2023-08-12T09:04:13;4.00;;;2.08;;
16401;SDS011;8310;44.626;11.176;2023-08-12T09:06:42;5.07;;;2.30;;
16401;SDS011;8310;44.626;11.176;2023-08-12T09:09:12;7.65;;;1.92;;
16401;SDS011;8310;44.626;11.176;2023-08-12T09:11:42;6.13;;;2.00;;
16401;SDS011;8310;44.626;11.176;2023-08-12T09:14:10;6.60;;;2.30;;
16401;SDS011;8310;44.626;11.176;2023-08-12T09:19:06;4.03;;;2.10;;
16401;SDS011;8310;44.626;11.176;2023-08-12T09:21:33;4.63;;;2.22;;
16401;SDS011;8310;44.626;11.176;2023-08-12T09:24:02;5.57;;;2.20;;
16401;SDS011;8310;44.626;11.176;2023-08-12T09:26:32;2.60;;;1.65;;
16401;SDS011;8310;44.626;11.176;2023-08-12T09:29:00;4.25;;;1.85;;
16401;SDS011;8310;44.626;11.176;2023-08-12T09:31:28;5.07;;;2.00;;
16401;SDS011;8310;44.626;11.176;2023-08-12T09:33:57;4.28;;;2.30;;
16401;SDS011;8310;44.626;11.176;2023-08-12T09:36:29;9.18;;;2.10;;
16401;SDS011;8310;44.626;11.176;2023-08-12T09:41:33;10.15;;;2.60;;
16401;SDS011;8310;44.626;11.176;2023-08-12T09:44:01;4.05;;;1.85;;
16401;SDS011;8310;44.626;11.176;2023-08-12T09:46:28;6.18;;;2.10;;
16401;SDS011;8310;44.626;11.176;2023-08-12T09:48:59;6.20;;;1.70;;
16401;SDS011;8310;44.626;11.176;2023-08-12T09:51:26;6.50;;;2.20;;
16401;SDS011;8310;44.626;11.176;2023-08-12T09:54:00;2.47;;;1.63;;
16401;SDS011;8310;44.626;11.176;2023-08-12T09:56:27;6.15;;;1.85;;
16401;SDS011;8310;44.626;11.176;2023-08-12T09:59:03;5.45;;;1.85;;
16401;SDS011;8310;44.626;11.176;2023-08-12T10:01:33;4.68;;;1.75;;
16401;SDS011;8310;44.626;11.176;2023-08-12T10:04:00;5.15;;;2.13;;
16401;SDS011;8310;44.626;11.176;2023-08-12T10:06:32;3.90;;;1.75;;
16401;SDS011;8310;44.626;11.176;2023-08-12T10:09:00;4.85;;;1.60;;
16401;SDS011;8310;44.626;11.176;2023-08-12T10:11:29;4.97;;;1.55;;
16401;SDS011;8310;44.626;11.176;2023-08-12T10:13:58;5.10;;;2.35;;
16401;SDS011;8310;44.626;11.176;2023-08-12T10:16:27;4.45;;;1.60;;
16401;SDS011;8310;44.626;11.176;2023-08-12T10:18:56;6.13;;;1.83;;
16401;SDS011;8310;44.626;11.176;2023-08-12T10:21:24;7.15;;;1.60;;
16401;SDS011;8310;44.626;11.176;2023-08-12T10:23:53;2.80;;;1.85;;
16401;SDS011;8310;44.626;11.176;2023-08-12T10:28:49;3.35;;;1.80;;
16401;SDS011;8310;44.626;11.176;2023-08-12T10:31:18;4.68;;;1.77;;
16401;SDS011;8310;44.626;11.176;2023-08-12T10:33:45;4.72;;;1.60;;
16401;SDS011;8310;44.626;11.176;2023-08-12T10:36:15;6.15;;;2.05;;
16401;SDS011;8310;44.626;11.176;2023-08-12T10:38:44;7.03;;;1.70;;
16401;SDS011;8310;44.626;11.176;2023-08-12T10:41:15;4.93;;;1.70;;
16401;SDS011;8310;44.626;11.176;2023-08-12T10:43:53;4.53;;;1.75;;
16401;SDS011;8310;44.626;11.176;2023-08-12T10:46:27;3.53;;;1.90;;
16401;SDS011;8310;44.626;11.176;2023-08-12T10:48:57;3.72;;;2.00;;
16401;SDS011;8310;44.626;11.176;2023-08-12T10:51:39;7.15;;;1.92;;
16401;SDS011;8310;44.626;11.176;2023-08-12T10:54:13;3.70;;;1.70;;
16401;SDS011;8310;44.626;11.176;2023-08-12T10:59:49;7.18;;;1.83;;
16401;SDS011;8310;44.626;11.176;2023-08-12T11:02:25;3.30;;;1.65;;
16401;SDS011;8310;44.626;11.176;2023-08-12T11:04:54;4.13;;;1.77;;
16401;SDS011;8310;44.626;11.176;2023-08-12T11:07:28;7.47;;;1.80;;
16401;SDS011;8310;44.626;11.176;2023-08-12T11:10:03;3.08;;;2.00;;
16401;SDS011;8310;44.626;11.176;2023-08-12T11:12:32;4.45;;;2.17;;
16401;SDS011;8310;44.626;11.176;2023-08-12T11:15:01;3.70;;;1.63;;
16401;SDS011;8310;44.626;11.176;2023-08-12T11:17:38;7.72;;;1.67;;
16401;SDS011;8310;44.626;11.176;2023-08-12T11:20:08;4.78;;;1.40;;
16401;SDS011;8310;44.626;11.176;2023-08-12T11:22:37;4.82;;;1.77;;
16401;SDS011;8310;44.626;11.176;2023-08-12T11:25:06;6.25;;;2.00;;
16401;SDS011;8310;44.626;11.176;2023-08-12T11:27:36;6.50;;;1.73;;
16401;SDS011;8310;44.626;11.176;2023-08-12T11:30:05;6.65;;;1.70;;
16401;SDS011;8310;44.626;11.176;2023-08-12T11:32:35;5.93;;;1.60;;
16401;SDS011;8310;44.626;11.176;2023-08-12T11:35:03;2.85;;;1.60;;
16401;SDS011;8310;44.626;11.176;2023-08-12T11:37:33;4.72;;;1.67;;
16401;SDS011;8310;44.626;11.176;2023-08-12T11:40:03;2.70;;;1.52;;
16401;SDS011;8310;44.626;11.176;2023-08-12T11:42:34;5.32;;;1.55;;
16401;SDS011;8310;44.626;11.176;2023-08-12T11:45:01;3.80;;;1.60;;
16401;SDS011;8310;44.626;11.176;2023-08-12T11:47:29;4.55;;;1.60;;
16401;SDS011;8310;44.626;11.176;2023-08-12T11:52:28;5.35;;;1.83;;
16401;SDS011;8310;44.626;11.176;2023-08-12T11:54:56;3.75;;;1.27;;
16401;SDS011;8310;44.626;11.176;2023-08-12T11:57:24;1.92;;;1.20;;
16401;SDS011;8310;44.626;11.176;2023-08-12T11:59:53;3.42;;;1.30;;
16401;SDS011;8310;44.626;11.176;2023-08-12T12:02:25;4.20;;;1.33;;
16401;SDS011;8310;44.626;11.176;2023-08-12T12:04:52;3.38;;;1.33;;
16401;SDS011;8310;44.626;11.176;2023-08-12T12:07:21;2.33;;;1.50;;
16401;SDS011;8310;44.626;11.176;2023-08-12T12:09:51;4.57;;;1.38;;
16401;SDS011;8310;44.626;11.176;2023-08-12T12:12:24;12.18;;;1.35;;
16401;SDS011;8310;44.626;11.176;2023-08-12T12:14:52;3.20;;;1.58;;
16401;SDS011;8310;44.626;11.176;2023-08-12T12:17:20;4.28;;;1.33;;
16401;SDS011;8310;44.626;11.176;2023-08-12T12:19:51;20.90;;;4.03;;
16401;SDS011;8310;44.626;11.176;2023-08-12T12:22:22;3.05;;;1.75;;
16401;SDS011;8310;44.626;11.176;2023-08-12T12:24:53;4.03;;;1.45;;
16401;SDS011;8310;44.626;11.176;2023-08-12T12:27:21;4.53;;;1.63;;
16401;SDS011;8310;44.626;11.176;2023-08-12T12:32:17;4.55;;;1.58;;
16401;SDS011;8310;44.626;11.176;2023-08-12T12:34:46;5.53;;;1.50;;
16401;SDS011;8310;44.626;11.176;2023-08-12T12:37:13;6.30;;;1.38;;
16401;SDS011;8310;44.626;11.176;2023-08-12T12:39:42;4.45;;;1.40;;
16401;SDS011;8310;44.626;11.176;2023-08-12T12:42:10;5.70;;;1.50;;
16401;SDS011;8310;44.626;11.176;2023-08-12T12:44:38;2.80;;;1.25;;
16401;SDS011;8310;44.626;11.176;2023-08-12T12:47:06;3.33;;;1.73;;
16401;SDS011;8310;44.626;11.176;2023-08-12T12:49:35;3.67;;;1.48;;
16401;SDS011;8310;44.626;11.176;2023-08-12T12:52:02;2.10;;;1.40;;
16401;SDS011;8310;44.626;11.176;2023-08-12T12:54:29;2.15;;;1.65;;
16401;SDS011;8310;44.626;11.176;2023-08-12T12:56:59;3.70;;;1.40;;
16401;SDS011;8310;44.626;11.176;2023-08-12T12:59:26;3.13;;;1.63;;
16401;SDS011;8310;44.626;11.176;2023-08-12T13:01:54;3.55;;;1.35;;
16401;SDS011;8310;44.626;11.176;2023-08-12T13:04:21;2.38;;;1.60;;
16401;SDS011;8310;44.626;11.176;2023-08-12T13:06:49;2.33;;;1.33;;
16401;SDS011;8310;44.626;11.176;2023-08-12T13:09:16;2.30;;;1.38;;
16401;SDS011;8310;44.626;11.176;2023-08-12T13:11:44;6.68;;;1.88;;
16401;SDS011;8310;44.626;11.176;2023-08-12T13:16:41;5.35;;;1.60;;
16401;SDS011;8310;44.626;11.176;2023-08-12T13:19:08;4.20;;;1.67;;
16401;SDS011;8310;44.626;11.176;2023-08-12T13:21:39;3.78;;;1.70;;
16401;SDS011;8310;44.626;11.176;2023-08-12T13:24:07;6.07;;;1.60;;
16401;SDS011;8310;44.626;11.176;2023-08-12T13:26:34;2.17;;;1.23;;
16401;SDS011;8310;44.626;11.176;2023-08-12T13:31:31;2.42;;;1.60;;
16401;SDS011;8310;44.626;11.176;2023-08-12T13:33:58;6.45;;;1.60;;
16401;SDS011;8310;44.626;11.176;2023-08-12T13:36:26;4.57;;;1.70;;
16401;SDS011;8310;44.626;11.176;2023-08-12T13:38:53;2.15;;;1.48;;
16401;SDS011;8310;44.626;11.176;2023-08-12T13:41:21;3.35;;;1.70;;
16401;SDS011;8310;44.626;11.176;2023-08-12T13:43:49;5.78;;;1.60;;
16401;SDS011;8310;44.626;11.176;2023-08-12T13:46:16;7.18;;;1.55;;
16401;SDS011;8310;44.626;11.176;2023-08-12T13:51:15;6.03;;;1.45;;
16401;SDS011;8310;44.626;11.176;2023-08-12T13:53:43;7.20;;;1.77;;
16401;SDS011;8310;44.626;11.176;2023-08-12T13:56:10;4.82;;;1.67;;
16401;SDS011;8310;44.626;11.176;2023-08-12T13:58:37;4.47;;;1.60;;
16401;SDS011;8310;44.626;11.176;2023-08-12T14:01:04;3.53;;;1.60;;
16401;SDS011;8310;44.626;11.176;2023-08-12T14:03:31;6.03;;;1.30;;
16401;SDS011;8310;44.626;11.176;2023-08-12T14:06:02;6.68;;;1.60;;
16401;SDS011;8310;44.626;11.176;2023-08-12T14:08:29;4.13;;;1.55;;
16401;SDS011;8310;44.626;11.176;2023-08-12T14:10:57;4.50;;;1.50;;
16401;SDS011;8310;44.626;11.176;2023-08-12T14:13:24;4.40;;;1.88;;
16401;SDS011;8310;44.626;11.176;2023-08-12T14:18:19;4.07;;;1.63;;
16401;SDS011;8310;44.626;11.176;2023-08-12T14:20:47;3.10;;;1.45;;
16401;SDS011;8310;44.626;11.176;2023-08-12T14:23:16;5.10;;;1.67;;
16401;SDS011;8310;44.626;11.176;2023-08-12T14:25:45;5.03;;;1.42;;
16401;SDS011;8310;44.626;11.176;2023-08-12T14:28:16;4.53;;;1.58;;
16401;SDS011;8310;44.626;11.176;2023-08-12T14:30:43;5.70;;;1.50;;
16401;SDS011;8310;44.626;11.176;2023-08-12T14:33:11;4.25;;;1.75;;
16401;SDS011;8310;44.626;11.176;2023-08-12T14:35:38;8.10;;;1.63;;
16401;SDS011;8310;44.626;11.176;2023-08-12T14:38:06;3.42;;;1.60;;
16401;SDS011;8310;44.626;11.176;2023-08-12T14:43:02;5.28;;;1.65;;
16401;SDS011;8310;44.626;11.176;2023-08-12T14:45:30;2.08;;;1.58;;
16401;SDS011;8310;44.626;11.176;2023-08-12T14:47:57;5.22;;;1.52;;
16401;SDS011;8310;44.626;11.176;2023-08-12T14:50:25;4.43;;;1.50;;
16401;SDS011;8310;44.626;11.176;2023-08-12T14:52:52;4.63;;;1.48;;
16401;SDS011;8310;44.626;11.176;2023-08-12T14:55:20;4.25;;;1.77;;
16401;SDS011;8310;44.626;11.176;2023-08-12T14:57:49;8.00;;;1.48;;
16401;SDS011;8310;44.626;11.176;2023-08-12T15:00:17;6.03;;;1.50;;
16401;SDS011;8310;44.626;11.176;2023-08-12T15:02:44;7.47;;;1.65;;
16401;SDS011;8310;44.626;11.176;2023-08-12T15:05:12;6.45;;;1.60;;
16401;SDS011;8310;44.626;11.176;2023-08-12T15:10:07;5.20;;;1.58;;
16401;SDS011;8310;44.626;11.176;2023-08-12T15:12:35;2.45;;;1.40;;
16401;SDS011;8310;44.626;11.176;2023-08-12T15:15:05;5.18;;;1.63;;
16401;SDS011;8310;44.626;11.176;2023-08-12T15:17:33;2.83;;;1.58;;
16401;SDS011;8310;44.626;11.176;2023-08-12T15:20:00;2.42;;;1.30;;
16401;SDS011;8310;44.626;11.176;2023-08-12T15:22:27;6.35;;;1.45;;
16401;SDS011;8310;44.626;11.176;2023-08-12T15:24:55;6.68;;;1.63;;
16401;SDS011;8310;44.626;11.176;2023-08-12T15:27:22;4.90;;;1.50;;
16401;SDS011;8310;44.626;11.176;2023-08-12T15:29:50;2.83;;;1.50;;
16401;SDS011;8310;44.626;11.176;2023-08-12T15:32:19;2.05;;;1.50;;
16401;SDS011;8310;44.626;11.176;2023-08-12T15:34:46;3.28;;;1.42;;
16401;SDS011;8310;44.626;11.176;2023-08-12T15:37:14;5.13;;;1.58;;
16401;SDS011;8310;44.626;11.176;2023-08-12T15:39:41;3.58;;;1.40;;